Leviticus — WDC2712 — position and weather

sailwx.info

Track history (hours):
 
Tides and Currents Weather Stations Pressure Air Temp Water Temp Dewpoint Dewpoint Depression Visibility Wind Speed Wind Dir Waves Ship Positions

Leviticus

Owner: Kirby Inland Marine, LP, Houston, TX. More information available from US FCC via Universal Licensing System and Coast Guard Vessel Documentation Center.

Last reported at 2015-Aug-27 13:20 UTC. Time now 2015-Aug-28 12:45 UTC.
Position N 29°57' W 090°02'.

Length 12 m.

Type: Other ship. MMSI: 366996690.

Date/timePositionNaut miles runAvg speedWind from/ knotsBaromVisibWave heightAir tempDewpointWater temp
2015-Aug-27 13:20N 29°57' W 090°02'6 7.4
2015-Aug-27 12:32N 29°55' W 090°08'2 0.3
2015-Aug-27 05:33N 29°55' W 090°06'2 0.0
2015-Aug-25 19:32N 29°55' W 090°04'  
2015-Aug-17 21:04N 39°06' W 084°50'2 4.7
2015-Aug-17 20:32N 39°07' W 084°48'4 4.2
2015-Aug-17 19:32N 39°07' W 084°42'5 5.5
2015-Aug-17 18:33N 39°04' W 084°36'5 5.2
2015-Aug-17 17:32N 39°06' W 084°30'3 3.5
2015-Aug-17 16:33N 39°04' W 084°26'5 5.3
2015-Aug-17 15:33N 39°02' W 084°20'5 5.3
2015-Aug-17 14:33N 38°57' W 084°17'5 5.4
2015-Aug-17 13:33N 38°52' W 084°14'  
Track history (hours):
 
Tides and Currents Weather Stations Pressure Air Temp Water Temp Dewpoint Dewpoint Depression Visibility Wind Speed Wind Dir Waves Ship Positions

Leviticus

Owner: Kirby Inland Marine, LP, Houston, TX. More information available from US FCC via Universal Licensing System and Coast Guard Vessel Documentation Center.

Last reported at 2015-Aug-27 13:20 UTC. Time now 2015-Aug-28 12:45 UTC.
Position N 29°57' W 090°02'.

Length 12 m.

Type: Other ship. MMSI: 366996690.

Date/timePositionNaut miles runAvg speedWind from/ knotsBaromVisibWave heightAir tempDewpointWater temp
2015-Aug-27 13:20N 29°57' W 090°02'6 7.4
2015-Aug-27 12:32N 29°55' W 090°08'2 0.3
2015-Aug-27 05:33N 29°55' W 090°06'2 0.0
2015-Aug-25 19:32N 29°55' W 090°04'  
2015-Aug-17 21:04N 39°06' W 084°50'2 4.7
2015-Aug-17 20:32N 39°07' W 084°48'4 4.2
2015-Aug-17 19:32N 39°07' W 084°42'5 5.5
2015-Aug-17 18:33N 39°04' W 084°36'5 5.2
2015-Aug-17 17:32N 39°06' W 084°30'3 3.5
2015-Aug-17 16:33N 39°04' W 084°26'5 5.3
2015-Aug-17 15:33N 39°02' W 084°20'5 5.3
2015-Aug-17 14:33N 38°57' W 084°17'5 5.4
2015-Aug-17 13:33N 38°52' W 084°14'  

Dump ship's entire track history